createdAt,value
2023-02-24T00:00:52.017Z,94649.38
2023-02-24T00:04:00.775Z,94649.44
2023-02-24T00:07:05.380Z,94655.28
2023-02-24T00:10:09.994Z,94656.44
2023-02-24T00:13:13.848Z,94662.97
2023-02-24T00:16:18.501Z,94672.34
2023-02-24T00:19:28.622Z,94674.84
2023-02-24T00:22:32.391Z,94685.22
2023-02-24T00:25:35.826Z,94697.50
2023-02-24T00:28:40.202Z,94694.47
2023-02-24T00:31:44.266Z,94700.22
2023-02-24T00:34:49.462Z,94706.69
2023-02-24T00:37:54.899Z,94710.66
2023-02-24T00:40:58.989Z,94717.47
2023-02-24T00:44:09.277Z,94720.97
2023-02-24T00:47:13.162Z,94730.72
2023-02-24T00:50:18.212Z,94720.41
2023-02-24T00:53:21.982Z,94723.22
2023-02-24T00:56:27.690Z,94712.75
2023-02-24T00:59:30.706Z,94725.66
2023-02-24T01:02:34.370Z,94724.16
2023-02-24T01:05:38.125Z,94714.59
2023-02-24T01:08:48.027Z,94724.09
2023-02-24T01:12:22.969Z,94730.00
2023-02-24T01:15:26.708Z,94732.00
2023-02-24T01:18:31.636Z,94732.59
2023-02-24T01:21:36.132Z,94731.78
2023-02-24T01:24:40.747Z,94747.66
2023-02-24T01:27:43.824Z,94736.69
2023-02-24T01:30:47.916Z,94724.56
2023-02-24T01:33:53.083Z,94734.03
2023-02-24T01:36:57.083Z,94742.09
2023-02-24T01:40:08.211Z,94732.88
2023-02-24T01:43:12.514Z,94732.63
2023-02-24T01:46:18.457Z,94732.41
2023-02-24T01:49:44.411Z,94738.19
2023-02-24T01:52:52.369Z,94734.03
2023-02-24T01:55:55.350Z,94722.44
2023-02-24T01:59:00.437Z,94725.94
2023-02-24T02:02:08.100Z,94729.78
2023-02-24T02:05:12.459Z,94725.78
2023-02-24T02:08:18.266Z,94713.78
2023-02-24T02:11:23.648Z,94723.09
2023-02-24T02:14:28.969Z,94721.06
2023-02-24T02:17:37.901Z,94727.88
2023-02-24T02:20:54.443Z,94729.25
2023-02-24T02:24:04.909Z,94731.97
2023-02-24T02:27:34.822Z,94729.91
2023-02-24T02:30:47.625Z,94732.16
2023-02-24T02:34:13.400Z,94730.91
2023-02-24T02:37:25.098Z,94730.06
2023-02-24T02:40:43.653Z,94732.16
2023-02-24T02:44:12.604Z,94720.81
2023-02-24T02:47:54.781Z,94721.50
2023-02-24T02:51:18.396Z,94714.13
2023-02-24T02:54:41.157Z,94719.13
2023-02-24T02:57:50.062Z,94713.34
2023-02-24T03:01:02.627Z,94711.53
2023-02-24T03:04:10.175Z,94711.41
2023-02-24T03:07:18.718Z,94720.19
2023-02-24T03:10:28.069Z,94712.34
2023-02-24T03:13:37.728Z,94718.59
2023-02-24T03:16:44.313Z,94723.75
2023-02-24T03:19:55.134Z,94723.69
2023-02-24T03:23:18.807Z,94716.47
2023-02-24T03:26:42.334Z,94719.78
2023-02-24T03:29:55.878Z,94714.63
2023-02-24T03:33:30.902Z,94720.66
2023-02-24T03:36:34.782Z,94720.38
2023-02-24T03:39:41.070Z,94714.91
2023-02-24T03:43:06.021Z,94716.47
2023-02-24T03:46:09.962Z,94717.72
2023-02-24T03:49:17.108Z,94707.69
2023-02-24T03:52:35.669Z,94705.72
2023-02-24T03:56:00.176Z,94710.88
2023-02-24T03:59:39.070Z,94710.78
2023-02-24T04:02:44.370Z,94704.66
2023-02-24T04:06:12.931Z,94699.53
2023-02-24T04:09:20.637Z,94685.97
2023-02-24T04:12:48.081Z,94680.66
2023-02-24T04:15:59.915Z,94673.00
2023-02-24T04:19:09.550Z,94660.09
2023-02-24T04:22:17.188Z,94658.16
2023-02-24T04:25:27.709Z,94666.59
2023-02-24T04:28:34.654Z,94653.06
2023-02-24T04:31:39.771Z,94660.06
2023-02-24T04:34:43.595Z,94654.72
2023-02-24T04:37:46.867Z,94651.63
2023-02-24T04:40:50.439Z,94643.78
2023-02-24T04:43:54.045Z,94652.09
2023-02-24T04:46:58.759Z,94647.72
2023-02-24T04:50:06.385Z,94644.66
2023-02-24T04:53:15.196Z,94642.06
2023-02-24T04:56:19.856Z,94647.34
2023-02-24T04:59:25.423Z,94634.22
2023-02-24T05:02:28.338Z,94634.59
2023-02-24T05:05:33.946Z,94635.69
2023-02-24T05:08:36.959Z,94631.59
2023-02-24T05:11:43.063Z,94634.81
2023-02-24T05:14:46.006Z,94624.88
2023-02-24T05:17:52.056Z,94625.09
2023-02-24T05:21:15.336Z,94630.25
2023-02-24T05:24:18.316Z,94618.56
2023-02-24T05:27:22.009Z,94623.88
2023-02-24T05:30:25.963Z,94622.72
2023-02-24T05:33:29.790Z,94620.38
2023-02-24T05:36:42.113Z,94614.00
2023-02-24T05:39:45.244Z,94623.47
2023-02-24T05:42:48.966Z,94621.78
2023-02-24T05:45:51.914Z,94612.69
2023-02-24T05:48:59.866Z,94606.22
2023-02-24T05:52:09.356Z,94599.75
2023-02-24T05:55:14.631Z,94602.56
2023-02-24T05:58:18.047Z,94595.81
2023-02-24T06:01:22.155Z,94616.81
2023-02-24T06:04:40.215Z,94612.47
2023-02-24T06:07:43.652Z,94622.28
2023-02-24T06:10:48.340Z,94616.09
2023-02-24T06:13:52.775Z,94602.53
2023-02-24T06:16:55.884Z,94615.84
2023-02-24T06:20:00.221Z,94611.16
2023-02-24T06:23:06.224Z,94610.44
2023-02-24T06:26:19.808Z,94597.66
2023-02-24T06:29:25.892Z,94595.94
2023-02-24T06:32:29.102Z,94616.97
2023-02-24T06:35:33.864Z,94603.63
2023-02-24T06:38:38.060Z,94591.16
2023-02-24T06:41:43.076Z,94593.91
2023-02-24T06:44:47.400Z,94588.47
2023-02-24T06:47:50.847Z,94591.38
2023-02-24T06:50:55.918Z,94590.16
2023-02-24T06:54:00.637Z,94600.41
2023-02-24T06:57:05.148Z,94599.44
2023-02-24T07:00:18.211Z,94608.75
2023-02-24T07:03:24.923Z,94591.03
2023-02-24T07:06:29.987Z,94591.72
2023-02-24T07:09:33.724Z,94583.16
2023-02-24T07:12:36.731Z,94576.94
2023-02-24T07:15:39.647Z,94572.41
2023-02-24T07:18:44.974Z,94565.78
2023-02-24T07:21:53.201Z,94567.09
2023-02-24T07:25:01.355Z,94578.34
2023-02-24T07:28:05.069Z,94591.53
2023-02-24T07:31:16.007Z,94579.88
2023-02-24T07:34:24.069Z,94574.47
2023-02-24T07:37:32.288Z,94564.06
2023-02-24T07:40:36.886Z,94579.16
2023-02-24T07:43:42.525Z,94564.72
2023-02-24T07:46:46.649Z,94566.13
2023-02-24T07:49:51.719Z,94571.06
2023-02-24T07:52:55.751Z,94575.19
2023-02-24T07:55:58.939Z,94569.06
2023-02-24T07:59:10.348Z,94567.00
2023-02-24T08:02:14.687Z,94564.81
2023-02-24T08:05:22.291Z,94559.22
2023-02-24T08:08:26.648Z,94563.00
2023-02-24T08:11:43.046Z,94562.75
2023-02-24T08:14:52.077Z,94548.41
2023-02-24T08:18:01.632Z,94547.03
2023-02-24T08:21:05.350Z,94548.28
2023-02-24T08:24:18.098Z,94555.97
2023-02-24T08:27:27.463Z,94547.22
2023-02-24T08:30:31.214Z,94538.03
2023-02-24T08:33:38.157Z,94532.38
2023-02-24T08:36:47.464Z,94530.47
2023-02-24T08:39:55.030Z,94531.75
2023-02-24T08:43:19.902Z,94538.81
2023-02-24T08:46:33.721Z,94543.31
2023-02-24T08:49:40.020Z,94542.03
2023-02-24T08:52:43.748Z,94536.72
2023-02-24T08:55:52.359Z,94537.47
2023-02-24T08:58:59.316Z,94539.03
2023-02-24T09:02:18.544Z,94537.47
2023-02-24T09:05:24.901Z,94530.81
2023-02-24T09:08:33.217Z,94527.50
2023-02-24T09:11:37.018Z,94530.72
2023-02-24T09:14:40.271Z,94522.78
2023-02-24T09:17:45.545Z,94522.06
2023-02-24T09:21:16.512Z,94520.88
2023-02-24T09:24:29.389Z,94525.69
2023-02-24T09:27:32.507Z,94518.00
2023-02-24T09:30:51.887Z,94513.03
2023-02-24T09:33:54.969Z,94511.72
2023-02-24T09:37:06.901Z,94506.47
2023-02-24T09:40:16.856Z,94515.34
2023-02-24T09:43:28.498Z,94498.56
2023-02-24T09:46:38.632Z,94507.59
2023-02-24T09:49:59.663Z,94510.75
2023-02-24T09:53:14.967Z,94503.78
2023-02-24T09:56:27.525Z,94514.84
2023-02-24T09:59:51.810Z,94502.22
2023-02-24T10:03:21.501Z,94511.13
2023-02-24T10:06:36.157Z,94515.94
2023-02-24T10:09:56.062Z,94516.03
2023-02-24T10:13:18.137Z,94515.72
2023-02-24T10:16:24.582Z,94518.75
2023-02-24T10:19:34.682Z,94516.63
2023-02-24T10:22:58.741Z,94517.34
2023-02-24T10:27:08.833Z,94518.22
2023-02-24T10:30:28.638Z,94519.75
2023-02-24T10:33:45.830Z,94522.47
2023-02-24T10:36:50.910Z,94523.56
2023-02-24T10:39:59.893Z,94517.69
2023-02-24T10:43:11.086Z,94514.19
2023-02-24T10:46:42.847Z,94514.53
2023-02-24T10:49:57.649Z,94509.72
2023-02-24T10:53:08.404Z,94515.16
2023-02-24T10:56:42.163Z,94515.00
2023-02-24T11:00:14.652Z,94523.72
2023-02-24T11:03:32.672Z,94529.50
2023-02-24T11:06:42.049Z,94526.22
2023-02-24T11:09:52.742Z,94526.22
2023-02-24T11:13:15.629Z,94524.13
2023-02-24T11:16:37.697Z,94516.94
2023-02-24T11:20:00.216Z,94528.09
2023-02-24T11:23:10.583Z,94520.25
2023-02-24T11:26:23.765Z,94525.94
2023-02-24T11:29:47.597Z,94534.97
2023-02-24T11:32:57.177Z,94531.09
2023-02-24T11:36:28.900Z,94531.72
2023-02-24T11:39:56.542Z,94533.25
2023-02-24T11:43:27.553Z,94535.63
2023-02-24T11:46:44.922Z,94529.47
2023-02-24T11:49:53.791Z,94526.06
2023-02-24T11:52:59.619Z,94514.00
2023-02-24T11:56:22.714Z,94532.47
2023-02-24T11:59:45.870Z,94522.19
2023-02-24T12:03:05.078Z,94526.94
2023-02-24T12:06:21.623Z,94524.44
2023-02-24T12:09:29.563Z,94523.16
2023-02-24T12:12:55.204Z,94526.06
2023-02-24T12:16:10.922Z,94531.47
2023-02-24T12:19:49.169Z,94531.06
2023-02-24T12:23:01.155Z,94532.59
2023-02-24T12:26:09.494Z,94525.78
2023-02-24T12:29:43.502Z,94530.47
2023-02-24T12:33:03.028Z,94531.25
2023-02-24T12:36:45.047Z,94534.75
2023-02-24T12:39:54.750Z,94535.47
2023-02-24T12:43:20.857Z,94535.47
2023-02-24T12:46:34.966Z,94532.47
2023-02-24T12:49:43.882Z,94537.78
2023-02-24T12:52:56.527Z,94529.34
2023-02-24T12:56:23.324Z,94536.22
2023-02-24T12:59:32.629Z,94542.69
2023-02-24T13:02:57.519Z,94536.81
2023-02-24T13:06:41.029Z,94542.84
2023-02-24T13:09:47.342Z,94538.13
2023-02-24T13:13:16.995Z,94535.53
2023-02-24T13:16:32.706Z,94524.47
2023-02-24T13:19:36.382Z,94533.88
2023-02-24T13:22:43.279Z,94535.25
2023-02-24T13:25:55.763Z,94538.97
2023-02-24T13:29:09.927Z,94529.38
2023-02-24T13:32:29.911Z,94539.16
2023-02-24T13:35:37.588Z,94530.81
2023-02-24T13:38:51.050Z,94534.03
2023-02-24T13:42:21.192Z,94544.03
2023-02-24T13:45:32.656Z,94539.16
2023-02-24T13:48:47.254Z,94543.28
2023-02-24T13:52:17.105Z,94540.41
2023-02-24T13:55:29.943Z,94540.69
2023-02-24T13:59:10.085Z,94543.28
2023-02-24T14:02:22.224Z,94546.19
2023-02-24T14:05:36.926Z,94544.13
2023-02-24T14:08:56.383Z,94546.63
2023-02-24T14:12:05.281Z,94548.34
2023-02-24T14:15:14.560Z,94550.53
2023-02-24T14:18:25.515Z,94555.13
2023-02-24T14:21:32.118Z,94556.88
2023-02-24T14:24:36.223Z,94556.25
2023-02-24T14:27:40.605Z,94542.47
2023-02-24T14:30:44.896Z,94547.38
2023-02-24T14:34:01.587Z,94548.28
2023-02-24T14:37:08.631Z,94535.84
2023-02-24T14:40:16.930Z,94535.84
2023-02-24T14:43:20.768Z,94539.72
2023-02-24T14:46:25.216Z,94530.78
2023-02-24T14:49:31.967Z,94533.00
2023-02-24T14:52:59.758Z,94546.31
2023-02-24T14:56:06.206Z,94537.22
2023-02-24T14:59:23.192Z,94535.78
2023-02-24T15:02:33.154Z,94543.66
2023-02-24T15:05:45.501Z,94539.28
2023-02-24T15:08:51.294Z,94541.28
2023-02-24T15:11:56.677Z,94544.34
2023-02-24T15:15:18.580Z,94533.97
2023-02-24T15:18:29.622Z,94538.38
2023-02-24T15:21:41.701Z,94540.34
2023-02-24T15:24:45.491Z,94532.09
2023-02-24T15:28:02.100Z,94543.16
2023-02-24T15:31:11.157Z,94535.44
2023-02-24T15:34:22.091Z,94543.78
2023-02-24T15:37:43.219Z,94540.75
2023-02-24T15:40:56.601Z,94553.22
2023-02-24T15:44:00.516Z,94533.75
2023-02-24T15:47:23.065Z,94540.84
2023-02-24T15:50:27.648Z,94534.75
2023-02-24T15:53:31.492Z,94541.34
2023-02-24T15:56:35.916Z,94526.09
2023-02-24T15:59:41.105Z,94539.31
2023-02-24T16:02:44.313Z,94535.78
2023-02-24T16:05:47.634Z,94537.94
2023-02-24T16:08:53.263Z,94535.59
2023-02-24T16:11:57.692Z,94530.69
2023-02-24T16:15:04.978Z,94534.19
2023-02-24T16:18:14.674Z,94538.44
2023-02-24T16:21:18.824Z,94531.88
2023-02-24T16:24:22.059Z,94525.28
2023-02-24T16:27:27.912Z,94523.38
2023-02-24T16:30:31.940Z,94520.09
2023-02-24T16:33:52.011Z,94521.03
2023-02-24T16:36:57.740Z,94517.94
2023-02-24T16:40:01.694Z,94515.34
2023-02-24T16:43:05.442Z,94522.19
2023-02-24T16:46:16.370Z,94516.78
2023-02-24T16:49:21.470Z,94529.75
2023-02-24T16:52:25.875Z,94520.34
2023-02-24T16:55:29.560Z,94511.41
2023-02-24T16:58:32.881Z,94516.13
2023-02-24T17:01:36.795Z,94522.91
2023-02-24T17:04:40.695Z,94530.19
2023-02-24T17:07:43.746Z,94526.41
2023-02-24T17:10:48.725Z,94528.06
2023-02-24T17:13:52.497Z,94524.53
2023-02-24T17:16:56.780Z,94526.34
2023-02-24T17:20:00.168Z,94517.22
2023-02-24T17:23:03.884Z,94521.19
2023-02-24T17:26:07.660Z,94519.78
2023-02-24T17:29:12.750Z,94520.28
2023-02-24T17:32:16.214Z,94516.00
2023-02-24T17:35:19.997Z,94515.81
2023-02-24T17:38:24.763Z,94518.63
2023-02-24T17:41:28.557Z,94514.09
2023-02-24T17:44:31.959Z,94513.59
2023-02-24T17:47:36.241Z,94505.16
2023-02-24T17:50:42.320Z,94511.72
2023-02-24T17:53:47.109Z,94513.59
2023-02-24T17:56:50.227Z,94506.53
2023-02-24T17:59:53.306Z,94523.38
2023-02-24T18:02:56.827Z,94525.75
2023-02-24T18:06:07.215Z,94519.59
2023-02-24T18:09:10.714Z,94516.97
2023-02-24T18:12:14.245Z,94526.59
2023-02-24T18:15:17.344Z,94528.00
2023-02-24T18:18:20.610Z,94514.56
2023-02-24T18:21:23.733Z,94525.13
2023-02-24T18:24:27.146Z,94512.38
2023-02-24T18:27:30.235Z,94528.81
2023-02-24T18:30:34.455Z,94533.31
2023-02-24T18:33:38.674Z,94528.28
2023-02-24T18:36:42.839Z,94524.41
2023-02-24T18:39:46.737Z,94514.09
2023-02-24T18:42:50.142Z,94517.19
2023-02-24T18:45:57.949Z,94512.50
2023-02-24T18:49:01.062Z,94517.91
2023-02-24T18:52:05.999Z,94523.28
2023-02-24T18:55:10.418Z,94523.03
2023-02-24T18:58:14.322Z,94521.41
2023-02-24T19:01:23.633Z,94530.66
2023-02-24T19:04:26.698Z,94527.53
2023-02-24T19:07:29.708Z,94512.53
2023-02-24T19:10:32.840Z,94525.78
2023-02-24T19:13:35.945Z,94520.03
2023-02-24T19:16:39.132Z,94518.41
2023-02-24T19:19:43.994Z,94517.28
2023-02-24T19:22:50.474Z,94514.97
2023-02-24T19:25:54.656Z,94515.25
2023-02-24T19:28:59.577Z,94513.66
2023-02-24T19:32:03.551Z,94515.63
2023-02-24T19:35:07.676Z,94504.97
2023-02-24T19:38:16.531Z,94512.72
2023-02-24T19:41:20.237Z,94510.34
2023-02-24T19:44:23.229Z,94502.06
2023-02-24T19:47:27.342Z,94498.56
2023-02-24T19:50:31.051Z,94504.44
2023-02-24T19:53:34.918Z,94494.72
2023-02-24T19:56:38.751Z,94494.53
2023-02-24T19:59:42.435Z,94501.59
2023-02-24T20:02:45.468Z,94483.00
2023-02-24T20:05:49.361Z,94496.19
2023-02-24T20:08:53.123Z,94493.34
2023-02-24T20:11:57.904Z,94485.44
2023-02-24T20:15:00.940Z,94479.56
2023-02-24T20:18:08.584Z,94487.69
2023-02-24T20:21:12.748Z,94474.25
2023-02-24T20:24:17.715Z,94474.97
2023-02-24T20:27:21.445Z,94481.84
2023-02-24T20:30:25.083Z,94469.69
2023-02-24T20:33:28.890Z,94466.91
2023-02-24T20:36:33.196Z,94472.84
2023-02-24T20:39:37.058Z,94457.41
2023-02-24T20:42:40.662Z,94471.22
2023-02-24T20:45:43.570Z,94458.44
2023-02-24T20:48:46.922Z,94466.47
2023-02-24T20:51:49.930Z,94468.59
2023-02-24T20:54:54.021Z,94452.69
2023-02-24T20:57:58.023Z,94456.44
2023-02-24T21:01:02.088Z,94456.44
2023-02-24T21:04:05.439Z,94459.66
2023-02-24T21:07:09.558Z,94451.28
2023-02-24T21:10:13.158Z,94447.50
2023-02-24T21:13:16.827Z,94456.88
2023-02-24T21:16:22.229Z,94459.19
2023-02-24T21:19:25.465Z,94450.25
2023-02-24T21:22:32.534Z,94448.81
2023-02-24T21:25:38.096Z,94445.38
2023-02-24T21:28:41.888Z,94430.78
2023-02-24T21:31:45.927Z,94439.28
2023-02-24T21:34:48.964Z,94438.13
2023-02-24T21:37:52.967Z,94439.34
2023-02-24T21:41:00.274Z,94436.06
2023-02-24T21:44:03.516Z,94436.72
2023-02-24T21:47:07.691Z,94428.09
2023-02-24T21:50:12.647Z,94431.13
2023-02-24T21:53:16.241Z,94420.53
2023-02-24T21:56:21.432Z,94419.38
2023-02-24T21:59:25.425Z,94427.84
2023-02-24T22:02:29.303Z,94424.59
2023-02-24T22:05:32.245Z,94417.41
2023-02-24T22:08:36.112Z,94420.25
2023-02-24T22:11:41.816Z,94425.47
2023-02-24T22:14:45.488Z,94426.38
2023-02-24T22:17:48.434Z,94422.03
2023-02-24T22:20:52.087Z,94420.03
2023-02-24T22:23:58.787Z,94416.38
2023-02-24T22:27:02.182Z,94428.44
2023-02-24T22:30:08.382Z,94430.09
2023-02-24T22:33:12.219Z,94434.78
2023-02-24T22:36:25.551Z,94436.03
2023-02-24T22:39:28.960Z,94422.91
2023-02-24T22:42:32.095Z,94425.59
2023-02-24T22:45:36.190Z,94430.66
2023-02-24T22:48:39.755Z,94425.53
2023-02-24T22:51:46.660Z,94423.66
2023-02-24T22:54:52.947Z,94421.78
2023-02-24T22:57:56.550Z,94416.53
2023-02-24T23:01:00.641Z,94419.47
2023-02-24T23:04:06.955Z,94419.41
2023-02-24T23:07:10.676Z,94428.97
2023-02-24T23:10:14.185Z,94421.63
2023-02-24T23:13:17.853Z,94422.78
2023-02-24T23:16:32.140Z,94416.03
2023-02-24T23:19:35.290Z,94425.25
2023-02-24T23:22:40.416Z,94425.34
2023-02-24T23:25:51.888Z,94428.28
2023-02-24T23:28:56.044Z,94430.22
2023-02-24T23:31:59.382Z,94418.94
2023-02-24T23:35:03.518Z,94430.78
2023-02-24T23:38:08.362Z,94425.06
2023-02-24T23:41:12.923Z,94431.72
2023-02-24T23:44:16.212Z,94433.53
2023-02-24T23:47:19.119Z,94436.03
2023-02-24T23:50:22.156Z,94430.28
2023-02-24T23:53:28.478Z,94429.81
2023-02-24T23:56:32.235Z,94425.06
2023-02-24T23:59:38.157Z,94419.22
